HR-0003 weather

CLOSED Rijeka Seaplane Terminal
Rijeka, Primorje-Gorski Kotar County, Croatia

Public forecast

Using degrees Celsius for public forecast. Weather courtesy of forecast.io.

METAR (pilot weather report)

Closest report is Rijeka Airport, 8.6 nm (15.9 km) SE. Retrieved 2019/09/17 05:30 UTC (26 minutes ago):

LDRI 170530Z VRB01KT CAVOK 18/17 Q1015

TAF (pilot weather forecast)

Forecast is more than 12 hours old.

Closest forecast is Rijeka Airport, 8.6 nm (15.9 km) SE. Retrieved 2019/09/16 00:00 UTC (1 day ago):

TAF LDRI 162325Z 1700/1800 VRB02KT CAVOK TX26/1713Z TN18/1704Z=